Time;durP1;ratioP1;P1;durP2;ratioP2;P2;SDS_P1;SDS_P2;PMS_P1;PMS_P2;Temp;Humidity;BMP_temperature;BMP_pressure;BME280_temperature;BME280_humidity;BME280_pressure;Samples;Min_cycle;Max_cycle;Signal;HPM_P1;HPM_P2
2022/05/30 00:01:44;;;;;;;7.03;6.53;;;10.00;99.90;;;;;;5074587;28;20649;-66
2022/05/30 00:04:10;;;;;;;7.67;6.57;;;10.00;99.90;;;;;;5072555;28;20232;-66
2022/05/30 00:06:36;;;;;;;6.80;6.30;;;10.00;99.90;;;;;;5074510;28;20170;-66
2022/05/30 00:09:02;;;;;;;8.57;7.03;;;10.00;99.90;;;;;;5065904;28;20654;-66
2022/05/30 00:11:28;;;;;;;7.03;6.43;;;9.90;99.90;;;;;;5054357;28;20210;-66
2022/05/30 00:13:54;;;;;;;6.10;5.60;;;10.00;99.90;;;;;;5060406;28;20182;-66
2022/05/30 00:16:22;;;;;;;5.63;5.33;;;10.10;99.90;;;;;;5072418;28;20197;-66
2022/05/30 00:18:48;;;;;;;6.63;5.80;;;10.10;99.90;;;;;;5074021;28;20202;-67
2022/05/30 00:21:18;;;;;;;6.17;5.70;;;10.10;99.90;;;;;;5071242;28;20278;-67
2022/05/30 00:23:44;;;;;;;6.70;6.20;;;10.20;99.90;;;;;;5054227;28;20170;-66
2022/05/30 00:26:10;;;;;;;6.93;6.43;;;10.20;99.90;;;;;;5055401;28;20204;-66
2022/05/30 00:28:36;;;;;;;6.37;5.90;;;10.20;99.90;;;;;;5074109;28;20206;-67
2022/05/30 00:31:02;;;;;;;6.70;6.30;;;10.30;99.90;;;;;;5073551;28;20205;-66
2022/05/30 00:33:28;;;;;;;7.13;6.57;;;10.30;99.90;;;;;;5052489;28;20187;-67
2022/05/30 00:35:54;;;;;;;6.90;6.43;;;10.30;99.90;;;;;;5051923;28;20178;-66
2022/05/30 00:38:20;;;;;;;6.73;6.23;;;10.30;99.90;;;;;;5053615;28;20248;-66
2022/05/30 00:40:46;;;;;;;7.30;6.53;;;10.30;99.90;;;;;;5053737;28;20198;-66
2022/05/30 00:43:25;;;;;;;7.33;6.67;;;10.30;99.90;;;;;;5053760;28;20175;-66
2022/05/30 00:45:52;;;;;;;6.50;6.10;;;10.30;99.90;;;;;;5056200;28;20225;-66
2022/05/30 00:48:21;;;;;;;7.67;6.47;;;10.20;99.90;;;;;;5073773;28;20204;-66
2022/05/30 00:50:49;;;;;;;6.73;6.07;;;10.30;99.90;;;;;;5071651;28;20190;-66
2022/05/30 00:53:15;;;;;;;8.13;6.40;;;10.30;99.90;;;;;;5053688;28;20509;-66
2022/05/30 00:55:43;;;;;;;6.70;6.20;;;10.30;99.90;;;;;;5052204;28;20182;-66
2022/05/30 00:58:11;;;;;;;6.43;6.03;;;10.30;99.90;;;;;;5052632;28;20706;-66
2022/05/30 01:00:37;;;;;;;7.13;6.43;;;10.30;99.90;;;;;;5031902;28;20195;-66
2022/05/30 01:08:32;;;;;;;10.00;6.67;;;10.30;99.90;;;;;;5036366;28;20720;-66
2022/05/30 01:10:57;;;;;;;6.17;5.83;;;10.30;99.90;;;;;;5073228;28;20798;-66
2022/05/30 01:13:27;;;;;;;6.20;5.90;;;10.30;99.90;;;;;;5072530;28;20174;-66
2022/05/30 01:15:53;;;;;;;6.60;6.10;;;10.30;99.90;;;;;;5033074;28;20266;-66
2022/05/30 01:18:33;;;;;;;6.60;6.00;;;10.40;99.90;;;;;;5032023;28;20622;-66
2022/05/30 01:21:25;;;;;;;6.40;6.00;;;10.40;99.90;;;;;;5032872;28;20205;-66
2022/05/30 01:24:05;;;;;;;6.80;6.20;;;10.40;99.90;;;;;;5037847;28;20182;-66
2022/05/30 01:26:47;;;;;;;6.03;5.63;;;10.30;99.90;;;;;;5073048;28;20166;-68
2022/05/30 01:29:29;;;;;;;6.67;6.13;;;10.30;99.90;;;;;;5067577;28;20185;-67
2022/05/30 01:31:55;;;;;;;6.27;5.83;;;10.30;99.90;;;;;;5051454;28;20186;-67
2022/05/30 01:34:23;;;;;;;6.10;5.70;;;10.30;99.90;;;;;;5053049;28;20181;-65
2022/05/30 01:36:49;;;;;;;6.20;5.80;;;10.30;99.90;;;;;;5052736;28;20175;-65
2022/05/30 01:39:15;;;;;;;6.33;5.83;;;10.30;99.90;;;;;;5054915;28;20225;-65
2022/05/30 01:41:40;;;;;;;6.30;5.83;;;10.20;99.90;;;;;;5071172;28;20244;-65
2022/05/30 01:44:06;;;;;;;6.73;6.07;;;10.20;99.90;;;;;;5067809;28;20757;-65
2022/05/30 01:46:32;;;;;;;6.70;6.27;;;10.20;99.90;;;;;;5050763;28;20181;-65
2022/05/30 01:48:59;;;;;;;6.40;6.00;;;10.20;99.90;;;;;;5052311;28;20577;-65
2022/05/30 01:51:25;;;;;;;10.23;6.63;;;10.10;99.90;;;;;;5052932;28;20549;-67
2022/05/30 01:53:51;;;;;;;6.67;6.27;;;10.00;99.90;;;;;;5051320;28;20183;-65
2022/05/30 01:56:18;;;;;;;6.40;6.00;;;10.00;99.90;;;;;;5052758;28;20764;-65
2022/05/30 01:58:44;;;;;;;6.77;6.37;;;10.00;99.90;;;;;;5052138;28;20289;-65
2022/05/30 02:01:21;;;;;;;6.70;6.30;;;10.00;99.90;;;;;;5071137;28;20303;-65
2022/05/30 02:03:48;;;;;;;7.80;7.00;;;10.00;99.90;;;;;;5071815;28;20169;-67
2022/05/30 02:06:14;;;;;;;7.37;6.43;;;10.00;99.90;;;;;;5052472;28;20540;-67
2022/05/30 02:08:40;;;;;;;7.03;6.43;;;9.90;99.90;;;;;;5051171;28;20191;-67
2022/05/30 02:11:08;;;;;;;6.60;6.20;;;9.90;99.90;;;;;;5069452;28;20277;-67
2022/05/30 02:13:34;;;;;;;7.13;6.57;;;9.90;99.90;;;;;;5071845;28;20206;-65
2022/05/30 02:19:00;;;;;;;8.63;6.43;;;9.90;99.90;;;;;;5052457;28;20383;-65
2022/05/30 02:21:25;;;;;;;8.70;7.23;;;9.80;99.90;;;;;;5051773;28;20769;-65
2022/05/30 02:23:51;;;;;;;7.13;6.37;;;9.80;99.90;;;;;;5051655;28;20258;-65
2022/05/30 02:26:17;;;;;;;6.90;6.47;;;9.80;99.90;;;;;;5051001;28;20183;-65
2022/05/30 02:28:42;;;;;;;7.83;6.97;;;9.80;99.90;;;;;;5051763;28;20715;-65
2022/05/30 02:31:08;;;;;;;8.23;7.23;;;9.80;99.90;;;;;;5068785;28;20284;-65
2022/05/30 02:39:02;;;;;;;8.10;7.30;;;9.70;99.90;;;;;;5071176;28;20592;-65
2022/05/30 02:41:28;;;;;;;9.60;7.23;;;9.70;99.90;;;;;;5071453;28;20607;-65
2022/05/30 02:43:54;;;;;;;9.53;7.20;;;9.70;99.90;;;;;;5070512;28;20232;-65
2022/05/30 02:46:19;;;;;;;7.60;7.00;;;9.70;99.90;;;;;;5051962;28;20229;-65
2022/05/30 02:48:45;;;;;;;7.33;6.63;;;9.70;99.90;;;;;;5050170;28;20551;-66
2022/05/30 02:51:11;;;;;;;8.70;7.90;;;9.70;99.90;;;;;;5068684;28;20703;-66
2022/05/30 02:53:37;;;;;;;13.50;7.03;;;9.70;99.90;;;;;;5071281;28;20641;-65
2022/05/30 02:56:04;;;;;;;7.87;7.37;;;9.70;99.90;;;;;;5053614;28;20186;-65
2022/05/30 02:58:31;;;;;;;7.70;7.10;;;9.70;99.90;;;;;;5051420;28;20222;-65
2022/05/30 03:00:56;;;;;;;7.53;6.93;;;9.70;99.90;;;;;;5063440;28;20193;-65
2022/05/30 03:03:22;;;;;;;7.20;6.60;;;9.70;99.90;;;;;;5070358;28;20549;-65
2022/05/30 03:05:47;;;;;;;7.50;7.00;;;9.80;99.90;;;;;;5056950;28;20308;-65
2022/05/30 03:08:13;;;;;;;7.23;6.60;;;9.70;99.90;;;;;;5051398;28;20178;-65
2022/05/30 03:10:39;;;;;;;7.87;7.17;;;9.70;99.90;;;;;;5061411;28;20573;-65
2022/05/30 03:13:06;;;;;;;7.97;6.27;;;9.70;99.90;;;;;;5071151;28;20255;-65
2022/05/30 03:15:32;;;;;;;8.03;7.23;;;9.70;99.90;;;;;;5069066;28;20174;-66
2022/05/30 03:17:58;;;;;;;7.57;6.97;;;9.70;99.90;;;;;;5071161;28;20173;-65
2022/05/30 03:20:24;;;;;;;8.43;6.97;;;9.70;99.90;;;;;;5070801;28;20270;-65
2022/05/30 03:22:50;;;;;;;9.03;6.70;;;9.70;99.90;;;;;;5069874;28;20178;-66
2022/05/30 03:25:17;;;;;;;7.50;6.80;;;9.70;99.90;;;;;;5064205;28;20583;-65
2022/05/30 03:27:42;;;;;;;7.20;6.40;;;9.80;99.90;;;;;;5051149;28;20536;-65
2022/05/30 03:30:10;;;;;;;6.70;6.10;;;9.70;99.90;;;;;;5055587;28;20288;-65
2022/05/30 03:32:35;;;;;;;10.07;6.60;;;9.80;99.90;;;;;;5071165;28;20178;-65
2022/05/30 03:35:02;;;;;;;7.57;6.67;;;9.80;99.90;;;;;;5066063;28;20179;-65
2022/05/30 03:37:28;;;;;;;7.87;7.20;;;9.80;99.90;;;;;;5050148;28;20252;-65
2022/05/30 03:39:53;;;;;;;11.53;7.03;;;9.80;99.90;;;;;;5051913;28;20206;-65
2022/05/30 03:42:20;;;;;;;7.83;7.33;;;9.80;99.90;;;;;;5070129;28;20246;-65
2022/05/30 03:44:45;;;;;;;7.10;6.40;;;9.90;99.90;;;;;;5070793;28;20241;-65
2022/05/30 03:47:11;;;;;;;6.83;6.33;;;9.90;99.90;;;;;;5051020;28;20179;-65
2022/05/30 03:49:37;;;;;;;7.60;6.93;;;10.00;99.90;;;;;;5050813;28;20179;-65
2022/05/30 03:52:04;;;;;;;7.40;6.77;;;10.00;99.90;;;;;;5067298;28;20676;-65
2022/05/30 03:54:30;;;;;;;7.03;6.50;;;10.10;99.90;;;;;;5070656;28;20695;-65
2022/05/30 03:56:56;;;;;;;7.50;7.03;;;10.10;99.90;;;;;;5054514;28;20316;-66
2022/05/30 03:59:21;;;;;;;8.03;7.07;;;10.20;99.90;;;;;;5050584;28;20251;-67
2022/05/30 04:01:47;;;;;;;10.57;7.37;;;10.20;99.90;;;;;;5064778;28;20229;-67
2022/05/30 04:04:13;;;;;;;7.43;6.73;;;10.20;99.90;;;;;;5070721;28;20175;-67
2022/05/30 04:06:39;;;;;;;8.13;6.87;;;10.20;99.90;;;;;;5070208;28;20171;-65
2022/05/30 04:09:06;;;;;;;8.47;7.13;;;10.20;99.90;;;;;;5073004;28;20185;-66
2022/05/30 04:11:32;;;;;;;7.67;6.83;;;10.30;99.90;;;;;;5063448;28;20238;-65
2022/05/30 04:13:57;;;;;;;6.97;6.30;;;10.30;99.90;;;;;;5054116;28;20199;-65
2022/05/30 04:16:23;;;;;;;7.50;6.80;;;10.30;99.90;;;;;;5073227;28;20178;-65
2022/05/30 04:18:49;;;;;;;6.40;6.00;;;10.30;99.90;;;;;;5074124;28;20289;-65
2022/05/30 04:21:15;;;;;;;7.87;5.23;;;10.40;99.90;;;;;;5055577;28;20297;-65
2022/05/30 04:23:42;;;;;;;6.60;6.00;;;10.40;99.90;;;;;;5053858;28;20179;-65
2022/05/30 04:26:12;;;;;;;8.93;6.13;;;10.50;99.90;;;;;;5070875;28;20230;-65
2022/05/30 04:28:38;;;;;;;7.97;6.23;;;10.60;99.90;;;;;;5074430;28;20630;-66
2022/05/30 04:31:06;;;;;;;6.60;6.00;;;10.70;99.90;;;;;;5057940;28;20206;-66
2022/05/30 04:33:33;;;;;;;7.53;6.67;;;10.60;99.90;;;;;;5057923;28;20183;-66
2022/05/30 04:36:00;;;;;;;7.07;6.37;;;10.70;99.90;;;;;;5073798;28;20182;-66
2022/05/30 04:38:26;;;;;;;6.70;5.83;;;10.70;99.90;;;;;;5069522;28;20198;-66
2022/05/30 04:40:51;;;;;;;5.80;5.47;;;10.70;99.90;;;;;;5053555;28;20191;-66
2022/05/30 04:43:17;;;;;;;8.67;6.30;;;10.80;99.90;;;;;;5055670;28;20653;-65
2022/05/30 04:45:42;;;;;;;7.27;5.50;;;10.90;99.90;;;;;;5073748;28;20205;-67
2022/05/30 04:48:08;;;;;;;8.00;5.93;;;10.90;99.90;;;;;;5073108;28;20528;-68
2022/05/30 04:50:33;;;;;;;24.00;7.93;;;11.00;99.90;;;;;;5053667;28;20187;-66
2022/05/30 04:52:59;;;;;;;14.70;6.90;;;11.10;99.90;;;;;;5053421;28;20233;-66
2022/05/30 04:55:25;;;;;;;8.93;5.67;;;11.30;99.90;;;;;;5070182;28;20182;-66
2022/05/30 04:57:50;;;;;;;12.03;5.83;;;11.30;99.90;;;;;;5073298;28;20185;-66
2022/05/30 05:00:20;;;;;;;6.20;5.80;;;11.50;99.90;;;;;;5059704;28;20261;-66
2022/05/30 05:02:46;;;;;;;6.63;5.97;;;11.60;99.90;;;;;;5033350;28;20176;-65
2022/05/30 05:05:12;;;;;;;7.87;6.73;;;11.60;99.90;;;;;;5031699;28;20278;-65
2022/05/30 05:08:18;;;;;;;6.53;5.93;;;11.70;99.90;;;;;;5033402;28;20459;-66
2022/05/30 05:10:56;;;;;;;8.43;6.13;;;11.70;99.90;;;;;;4992499;28;20208;-67
2022/05/30 05:13:22;;;;;;;7.80;6.00;;;11.80;99.90;;;;;;5010873;28;20527;-68
2022/05/30 05:15:48;;;;;;;7.73;6.10;;;11.80;99.90;;;;;;5034481;28;20206;-66
2022/05/30 05:18:14;;;;;;;6.53;5.87;;;11.90;99.90;;;;;;5053200;28;20179;-66
2022/05/30 05:20:44;;;;;;;6.83;5.70;;;11.90;99.90;;;;;;5069274;28;20252;-66
2022/05/30 05:23:11;;;;;;;7.63;6.97;;;12.00;99.90;;;;;;5073008;28;20170;-65
2022/05/30 05:25:41;;;;;;;5.90;5.43;;;12.00;99.90;;;;;;5056013;28;20586;-65
2022/05/30 05:28:07;;;;;;;5.90;5.50;;;12.10;99.90;;;;;;5052920;28;20171;-65
2022/05/30 05:30:33;;;;;;;7.53;5.93;;;12.10;99.90;;;;;;5053979;28;20631;-65
2022/05/30 05:32:59;;;;;;;10.17;5.50;;;12.30;99.90;;;;;;5052661;28;20207;-66
2022/05/30 05:35:25;;;;;;;5.70;5.30;;;12.40;99.90;;;;;;5064680;28;20198;-65
2022/05/30 05:37:51;;;;;;;6.43;5.47;;;12.50;99.90;;;;;;5072632;28;20174;-65
2022/05/30 05:40:17;;;;;;;5.40;4.90;;;12.60;99.90;;;;;;5061471;28;20214;-66
2022/05/30 05:42:43;;;;;;;8.37;5.37;;;12.60;99.90;;;;;;5052558;28;20265;-65
2022/05/30 05:45:09;;;;;;;9.77;5.37;;;12.70;99.90;;;;;;5059619;28;20260;-66
2022/05/30 05:47:35;;;;;;;9.07;5.93;;;12.70;99.90;;;;;;5072456;28;20216;-65
2022/05/30 05:50:01;;;;;;;5.87;5.37;;;12.50;99.90;;;;;;5063456;28;20203;-66
2022/05/30 05:52:28;;;;;;;9.17;5.40;;;12.40;99.90;;;;;;5052965;28;20465;-66
2022/05/30 05:54:55;;;;;;;5.80;5.30;;;12.40;99.90;;;;;;5057945;28;20186;-66
2022/05/30 05:57:21;;;;;;;6.50;5.50;;;12.40;99.90;;;;;;5072348;28;20185;-66
2022/05/30 05:59:47;;;;;;;5.97;5.33;;;12.40;99.90;;;;;;5067751;28;20206;-65
2022/05/30 06:02:13;;;;;;;7.30;5.47;;;12.40;99.90;;;;;;5051052;28;20252;-66
2022/05/30 06:04:39;;;;;;;11.87;6.13;;;12.40;99.90;;;;;;5052561;28;20338;-66
2022/05/30 06:07:05;;;;;;;6.20;5.60;;;12.40;99.90;;;;;;5055371;28;20634;-66
2022/05/30 06:09:30;;;;;;;10.13;6.13;;;12.40;99.90;;;;;;5051921;28;20233;-65
2022/05/30 06:12:00;;;;;;;6.40;5.90;;;12.40;99.90;;;;;;5071659;28;20170;-66
2022/05/30 06:14:26;;;;;;;6.20;5.77;;;12.50;99.90;;;;;;5070528;28;20178;-65
2022/05/30 06:16:52;;;;;;;7.90;6.03;;;12.60;99.90;;;;;;5051038;28;20277;-65
2022/05/30 06:19:18;;;;;;;6.40;5.80;;;12.70;99.90;;;;;;5051813;28;20285;-65
2022/05/30 06:21:44;;;;;;;7.27;6.20;;;12.90;99.90;;;;;;5068587;28;20241;-65
2022/05/30 06:24:10;;;;;;;9.97;6.20;;;13.20;99.90;;;;;;5071458;28;20227;-66
2022/05/30 06:26:36;;;;;;;7.13;6.47;;;13.30;99.90;;;;;;5056004;28;20229;-65
2022/05/30 06:29:03;;;;;;;10.63;7.10;;;13.50;99.90;;;;;;5051595;28;20174;-65
2022/05/30 06:31:30;;;;;;;7.23;6.63;;;13.60;99.90;;;;;;5062210;28;20229;-65
2022/05/30 06:34:01;;;;;;;8.10;7.00;;;13.70;99.90;;;;;;5060735;28;20195;-66
2022/05/30 06:36:26;;;;;;;10.57;6.70;;;13.60;99.90;;;;;;5051458;28;20179;-65
2022/05/30 06:38:53;;;;;;;9.57;6.07;;;13.70;99.90;;;;;;5059196;28;20697;-66
2022/05/30 06:41:29;;;;;;;7.83;6.87;;;13.80;99.90;;;;;;5070097;28;20197;-66
2022/05/30 06:43:57;;;;;;;11.37;5.73;;;13.90;99.90;;;;;;5061490;28;20530;-65
2022/05/30 06:46:23;;;;;;;8.60;6.47;;;13.90;99.90;;;;;;5051577;28;20175;-65
2022/05/30 06:48:54;;;;;;;9.17;6.23;;;14.00;99.90;;;;;;5052341;28;20236;-66
2022/05/30 06:51:20;;;;;;;6.10;5.60;;;14.00;99.90;;;;;;5051270;28;20281;-69
2022/05/30 06:53:46;;;;;;;6.47;5.97;;;14.20;99.90;;;;;;5056160;28;20174;-68
2022/05/30 06:56:18;;;;;;;9.93;6.20;;;14.30;99.90;;;;;;5071973;28;20196;-68
2022/05/30 06:58:45;;;;;;;15.73;6.57;;;14.50;99.90;;;;;;5062026;28;20195;-67
2022/05/30 07:01:11;;;;;;;8.70;6.50;;;14.50;99.90;;;;;;5051244;28;20195;-68
2022/05/30 07:03:38;;;;;;;7.37;5.77;;;14.60;99.90;;;;;;5058350;28;20183;-67
2022/05/30 07:06:09;;;;;;;7.87;6.30;;;14.70;99.90;;;;;;5071231;28;20209;-67
2022/05/30 07:08:35;;;;;;;9.73;6.10;;;14.90;99.90;;;;;;5063730;28;20634;-68
2022/05/30 07:11:01;;;;;;;11.87;6.87;;;14.80;99.90;;;;;;5050014;28;20210;-68
2022/05/30 07:13:30;;;;;;;9.93;6.33;;;14.80;99.90;;;;;;5055771;28;20396;-67
2022/05/30 07:15:56;;;;;;;14.03;6.80;;;14.80;99.90;;;;;;5071240;28;20540;-67
2022/05/30 07:18:22;;;;;;;11.33;6.97;;;14.90;99.90;;;;;;5068309;28;20257;-67
2022/05/30 07:20:58;;;;;;;16.83;6.67;;;15.00;99.90;;;;;;5051395;28;20206;-66
2022/05/30 07:23:24;;;;;;;8.53;6.57;;;15.20;99.90;;;;;;5052488;28;20197;-67
2022/05/30 07:25:49;;;;;;;9.77;6.30;;;15.40;99.90;;;;;;5070819;28;20186;-66
2022/05/30 07:28:15;;;;;;;9.70;5.77;;;15.70;99.90;;;;;;5068418;28;20173;-68
2022/05/30 07:30:41;;;;;;;8.80;6.50;;;15.80;99.90;;;;;;5052234;28;20205;-67
2022/05/30 07:33:08;;;;;;;6.10;5.60;;;16.00;99.90;;;;;;5051569;28;20178;-67
2022/05/30 07:35:34;;;;;;;11.77;5.40;;;16.50;99.90;;;;;;5050694;28;20213;-67
2022/05/30 07:37:59;;;;;;;9.23;5.40;;;16.90;99.90;;;;;;5068856;28;20543;-67
2022/05/30 07:40:25;;;;;;;7.20;4.80;;;17.40;99.90;;;;;;5070824;28;20210;-67
2022/05/30 07:42:51;;;;;;;8.63;5.50;;;17.90;99.90;;;;;;5054407;28;20179;-67
2022/05/30 07:45:16;;;;;;;7.43;5.00;;;18.20;99.90;;;;;;5054737;28;20215;-66
2022/05/30 07:47:42;;;;;;;9.93;5.50;;;18.40;99.90;;;;;;5069283;28;20265;-67
2022/05/30 07:50:08;;;;;;;9.73;5.10;;;18.70;99.90;;;;;;5074640;28;20331;-67
2022/05/30 07:52:34;;;;;;;11.93;5.23;;;18.70;99.90;;;;;;5072926;28;20196;-68
2022/05/30 07:55:02;;;;;;;8.57;5.90;;;18.20;99.90;;;;;;5074152;28;20239;-67
2022/05/30 08:00:14;;;;;;;14.03;5.60;;;18.00;99.90;;;;;;5054466;28;20293;-67
2022/05/30 08:02:40;;;;;;;5.07;4.53;;;17.90;99.90;;;;;;5054333;28;20642;-67
2022/05/30 08:05:08;;;;;;;8.07;5.17;;;17.60;99.90;;;;;;5051960;28;20183;-67
2022/05/30 08:07:34;;;;;;;6.70;4.50;;;17.30;99.90;;;;;;5054509;28;20240;-68
2022/05/30 08:10:00;;;;;;;7.33;4.80;;;17.20;99.90;;;;;;5054268;28;20662;-66
2022/05/30 08:12:25;;;;;;;7.23;5.30;;;17.20;99.90;;;;;;5063768;28;20181;-67
2022/05/30 08:14:52;;;;;;;9.03;5.27;;;17.60;99.90;;;;;;5073893;28;20527;-67
2022/05/30 08:17:18;;;;;;;8.50;5.40;;;18.00;99.90;;;;;;5065596;28;20702;-67
2022/05/30 08:19:43;;;;;;;8.47;5.30;;;18.10;99.90;;;;;;5053813;28;20210;-66
2022/05/30 08:22:11;;;;;;;7.23;4.83;;;17.90;99.90;;;;;;5059136;28;20182;-66
2022/05/30 08:24:47;;;;;;;6.97;4.60;;;18.00;99.90;;;;;;5073930;28;20170;-67
2022/05/30 08:27:13;;;;;;;5.13;4.63;;;18.20;99.90;;;;;;5067347;28;20281;-66
2022/05/30 08:29:39;;;;;;;7.50;4.70;;;18.10;99.90;;;;;;5054022;28;20877;-66
2022/05/30 08:32:05;;;;;;;8.50;5.27;;;18.10;99.90;;;;;;5059532;28;20268;-67
2022/05/30 08:34:35;;;;;;;7.67;5.00;;;18.10;99.90;;;;;;5073643;28;20196;-67
2022/05/30 08:37:01;;;;;;;8.63;5.67;;;18.10;99.90;;;;;;5067191;28;20183;-67
2022/05/30 08:42:11;;;;;;;7.33;4.90;;;17.90;99.90;;;;;;5055252;28;20317;-67
2022/05/30 08:44:36;;;;;;;7.90;4.90;;;17.90;99.90;;;;;;5053423;28;20636;-67
2022/05/30 08:47:25;;;;;;;6.63;4.80;;;18.20;99.90;;;;;;5059959;28;20189;-66
2022/05/30 08:49:52;;;;;;;6.87;4.67;;;18.40;99.90;;;;;;5073380;28;20264;-66
2022/05/30 08:52:37;;;;;;;5.33;4.23;;;18.70;99.90;;;;;;5071889;28;20200;-67
2022/05/30 08:55:34;;;;;;;5.90;4.80;;;19.60;99.90;;;;;;5072419;28;20668;-66
2022/05/30 08:58:24;;;;;;;6.90;4.30;;;20.10;99.90;;;;;;5059644;28;20249;-67
2022/05/30 09:00:52;;;;;;;5.00;4.47;;;20.10;99.90;;;;;;5053227;28;20224;-67
2022/05/30 09:03:29;;;;;;;7.47;5.10;;;20.00;99.90;;;;;;5064743;28;20567;-66
2022/05/30 09:06:10;;;;;;;5.43;4.50;;;19.90;99.90;;;;;;5031818;28;20179;-67
2022/05/30 09:08:43;;;;;;;6.53;4.97;;;19.60;99.90;;;;;;5033323;28;20163;-67
2022/05/30 09:11:26;;;;;;;14.23;5.27;;;18.90;99.90;;;;;;5033408;28;20183;-66
2022/05/30 09:13:54;;;;;;;10.20;5.30;;;18.40;99.90;;;;;;5069976;28;20726;-67
2022/05/30 09:16:28;;;;;;;5.87;5.37;;;17.90;99.90;;;;;;5073139;28;20162;-67
2022/05/30 09:18:55;;;;;;;5.50;4.87;;;17.30;99.90;;;;;;5054454;28;20205;-67
2022/05/30 09:21:22;;;;;;;10.47;4.90;;;17.00;99.90;;;;;;5053784;28;20209;-66
2022/05/30 09:23:48;;;;;;;8.20;5.90;;;16.60;99.90;;;;;;5072233;28;20565;-67
2022/05/30 09:26:20;;;;;;;14.60;5.77;;;16.40;99.90;;;;;;5072796;28;20249;-67
2022/05/30 09:28:48;;;;;;;6.63;5.43;;;16.30;99.90;;;;;;5070297;28;20182;-67
2022/05/30 09:31:36;;;;;;;12.67;5.97;;;16.50;99.90;;;;;;5072679;28;20186;-67
2022/05/30 09:34:29;;;;;;;6.13;5.00;;;16.60;99.90;;;;;;5051948;28;20193;-67
2022/05/30 09:36:55;;;;;;;6.30;5.30;;;16.20;99.90;;;;;;5053647;28;20626;-67
2022/05/30 09:39:20;;;;;;;7.47;5.27;;;16.10;99.90;;;;;;5054761;28;20210;-67
2022/05/30 09:42:01;;;;;;;7.60;5.60;;;16.00;99.90;;;;;;5052406;28;20210;-67
2022/05/30 09:44:39;;;;;;;8.77;5.50;;;16.10;99.90;;;;;;5055480;28;20173;-67
2022/05/30 09:47:14;;;;;;;6.87;5.73;;;16.30;99.90;;;;;;5072438;28;20690;-67
2022/05/30 09:49:52;;;;;;;6.83;5.70;;;16.50;99.90;;;;;;5067262;28;20198;-67
2022/05/30 09:52:29;;;;;;;7.63;5.60;;;16.80;99.90;;;;;;5051252;28;20265;-65
2022/05/30 09:54:56;;;;;;;7.90;6.00;;;17.20;99.90;;;;;;5057910;28;20181;-66
2022/05/30 09:57:27;;;;;;;5.90;5.07;;;17.50;99.90;;;;;;5072482;28;20176;-69
2022/05/30 09:59:57;;;;;;;10.40;5.47;;;17.70;99.90;;;;;;5066601;28;20194;-66
2022/05/30 10:02:34;;;;;;;10.70;6.13;;;18.10;99.90;;;;;;5050990;28;20171;-66
2022/05/30 10:05:26;;;;;;;9.33;5.87;;;18.30;99.90;;;;;;5057080;28;20284;-66
2022/05/30 10:07:58;;;;;;;10.27;6.53;;;18.50;99.90;;;;;;5072267;28;20177;-66
2022/05/30 10:10:46;;;;;;;9.00;5.97;;;18.70;99.90;;;;;;5063800;28;20240;-65
2022/05/30 10:13:13;;;;;;;9.37;6.03;;;19.30;99.90;;;;;;5051960;28;20233;-65
2022/05/30 10:15:44;;;;;;;8.13;5.23;;;19.60;99.90;;;;;;5061288;28;20181;-66
2022/05/30 10:18:29;;;;;;;8.87;5.37;;;19.60;99.90;;;;;;5071848;28;20202;-67
2022/05/30 10:21:14;;;;;;;6.50;4.70;;;19.30;99.90;;;;;;5086030;22;20225;-64
2022/05/30 10:29:50;;;;;;;6.13;4.77;;;20.10;99.90;;;;;;5037265;28;20540;-65
2022/05/30 10:32:31;;;;;;;5.00;4.33;;;20.60;99.90;;;;;;5051684;28;20190;-64
2022/05/30 10:35:30;;;;;;;5.07;4.67;;;20.90;99.90;;;;;;5050887;28;20186;-64
2022/05/30 10:38:20;;;;;;;8.00;4.93;;;21.00;99.90;;;;;;5051400;28;20170;-64
2022/05/30 10:41:05;;;;;;;8.03;5.13;;;20.70;99.90;;;;;;5051276;28;20199;-64
2022/05/30 10:43:46;;;;;;;6.07;5.00;;;20.40;99.90;;;;;;5049237;28;20183;-65
2022/05/30 10:46:40;;;;;;;8.87;4.80;;;20.60;99.90;;;;;;5051504;28;20183;-65
2022/05/30 10:49:11;;;;;;;8.50;5.30;;;20.40;99.90;;;;;;5049435;28;20183;-64
2022/05/30 10:51:52;;;;;;;8.10;5.07;;;20.50;99.90;;;;;;5051122;28;20190;-64
2022/05/30 10:54:43;;;;;;;6.00;4.83;;;20.60;99.90;;;;;;5051144;28;20205;-64
2022/05/30 10:57:45;;;;;;;5.13;4.63;;;20.80;99.90;;;;;;5051373;28;20171;-65
2022/05/30 11:00:16;;;;;;;6.87;5.03;;;21.20;99.90;;;;;;5030943;28;20226;-65
2022/05/30 11:03:07;;;;;;;6.03;4.90;;;21.00;99.90;;;;;;5034204;28;20614;-64
2022/05/30 11:05:45;;;;;;;6.57;5.27;;;20.90;99.90;;;;;;5050637;28;20217;-64
2022/05/30 11:08:14;;;;;;;5.73;5.23;;;20.60;99.90;;;;;;5050967;28;20175;-65
2022/05/30 11:10:58;;;;;;;8.37;4.87;;;20.70;99.90;;;;;;5050888;28;20608;-65
2022/05/30 11:13:48;;;;;;;8.10;4.17;;;20.50;99.90;;;;;;5050517;28;20274;-64
2022/05/30 11:16:40;;;;;;;7.03;4.40;;;20.30;99.90;;;;;;5050891;28;20182;-64
2022/05/30 11:19:15;;;;;;;4.83;4.30;;;20.40;99.90;;;;;;5055197;28;20531;-64
2022/05/30 11:22:24;;;;;;;8.57;3.73;;;20.90;99.90;;;;;;5054529;28;20262;-64
2022/05/30 11:24:52;;;;;;;4.80;4.33;;;21.60;99.90;;;;;;5054203;28;20174;-64
2022/05/30 11:27:38;;;;;;;5.50;4.10;;;22.30;99.90;;;;;;5054908;28;20166;-65
2022/05/30 11:30:11;;;;;;;4.85;3.70;;;22.50;99.90;;;;;;5055079;28;20616;-64
2022/05/30 11:33:09;;;;;;;7.40;3.90;;;22.70;99.90;;;;;;5054675;28;20178;-64
2022/05/30 11:35:37;;;;;;;4.22;3.83;;;22.30;99.90;;;;;;5054578;28;20174;-64
2022/05/30 11:38:02;;;;;;;7.38;4.15;;;21.50;99.90;;;;;;5054533;28;20187;-64
2022/05/30 11:41:05;;;;;;;4.47;3.97;;;21.20;99.90;;;;;;5054855;28;20206;-64
2022/05/30 11:44:09;;;;;;;3.97;3.67;;;21.40;99.90;;;;;;5053959;28;20177;-63
2022/05/30 11:46:46;;;;;;;3.38;3.10;;;21.80;99.90;;;;;;5054874;28;20536;-64
2022/05/30 11:49:30;;;;;;;4.03;3.47;;;22.00;99.90;;;;;;5054395;28;20231;-64
2022/05/30 11:52:26;;;;;;;8.70;3.50;;;22.50;99.90;;;;;;5054500;28;20224;-63
2022/05/30 11:55:22;;;;;;;6.13;3.60;;;23.00;99.90;;;;;;5036543;28;20183;-64
2022/05/30 11:57:59;;;;;;;4.43;3.63;;;23.80;99.90;;;;;;5034539;28;20175;-65
2022/05/30 12:00:52;;;;;;;3.67;3.22;;;24.00;99.90;;;;;;5041137;28;20194;-64
2022/05/30 12:04:05;;;;;;;4.97;3.70;;;24.00;99.90;;;;;;5050054;28;20236;-64
2022/05/30 12:06:43;;;;;;;6.10;3.80;;;23.60;99.90;;;;;;5054208;28;20179;-64
2022/05/30 12:09:23;;;;;;;5.88;3.70;;;22.80;99.90;;;;;;5054708;28;20764;-64
2022/05/30 12:11:58;;;;;;;4.03;3.55;;;22.20;99.90;;;;;;5054241;28;20737;-65
2022/05/30 12:14:38;;;;;;;3.90;3.60;;;21.40;99.90;;;;;;5054166;28;20176;-64
2022/05/30 12:23:47;;;;;;;4.00;3.70;;;20.80;99.90;;;;;;5054034;28;20217;-64
2022/05/30 12:23:48;;;;;;;6.47;4.37;;;20.20;99.90;;;;;;5053392;28;20668;-63
2022/05/30 12:26:13;;;;;;;6.87;3.83;;;20.30;99.90;;;;;;5053047;28;20253;-64
2022/05/30 12:28:41;;;;;;;4.40;4.00;;;20.20;99.90;;;;;;5052933;28;20305;-64
2022/05/30 12:31:08;;;;;;;4.37;3.50;;;20.20;99.90;;;;;;5065676;28;20322;-64
2022/05/30 12:33:33;;;;;;;4.55;3.40;;;20.60;99.90;;;;;;5033601;28;20176;-64
2022/05/30 12:36:08;;;;;;;3.53;3.33;;;20.90;99.90;;;;;;5053024;28;20722;-65
2022/05/30 12:38:57;;;;;;;4.23;3.40;;;21.30;99.90;;;;;;5054041;28;20179;-64
2022/05/30 12:41:37;;;;;;;4.55;3.50;;;21.70;99.90;;;;;;5033805;28;20612;-65
2022/05/30 12:44:03;;;;;;;4.88;3.55;;;22.00;99.90;;;;;;5035512;28;20174;-65
2022/05/30 12:46:47;;;;;;;3.53;3.30;;;22.10;99.90;;;;;;5053490;28;20217;-64
2022/05/30 12:49:15;;;;;;;7.57;3.72;;;21.90;99.90;;;;;;5053453;28;20208;-65
2022/05/30 12:51:59;;;;;;;4.25;3.83;;;21.40;99.90;;;;;;5052058;28;20207;-65
2022/05/30 12:54:36;;;;;;;6.07;3.93;;;21.20;99.90;;;;;;5053169;28;20237;-65
2022/05/30 12:57:04;;;;;;;4.55;4.07;;;21.10;99.90;;;;;;5053547;28;20645;-65
2022/05/30 12:59:34;;;;;;;4.83;3.50;;;21.00;99.90;;;;;;5053097;28;20495;-65
2022/05/30 13:02:02;;;;;;;4.47;3.80;;;20.70;99.90;;;;;;5052826;28;20260;-65
2022/05/30 13:04:41;;;;;;;7.27;3.90;;;20.70;99.90;;;;;;5053121;28;20170;-65
2022/05/30 13:07:07;;;;;;;3.87;3.43;;;20.40;99.90;;;;;;5053261;28;20665;-65
2022/05/30 13:09:37;;;;;;;6.93;3.57;;;20.50;99.90;;;;;;5051965;28;20465;-64
2022/05/30 13:12:10;;;;;;;5.27;3.77;;;20.90;99.90;;;;;;5053215;28;20198;-65
2022/05/30 13:15:00;;;;;;;5.60;4.00;;;20.70;99.90;;;;;;5052163;28;20170;-65
2022/05/30 13:17:32;;;;;;;4.10;3.70;;;20.20;99.90;;;;;;5053257;28;20199;-65
2022/05/30 13:20:17;;;;;;;4.27;3.70;;;20.30;99.90;;;;;;5053084;28;20293;-65
2022/05/30 13:22:54;;;;;;;4.97;3.80;;;20.30;99.90;;;;;;5053331;28;20183;-65
2022/05/30 13:25:42;;;;;;;4.30;3.90;;;20.50;99.90;;;;;;5052658;28;20228;-65
2022/05/30 13:28:22;;;;;;;6.27;3.40;;;20.70;99.90;;;;;;5052681;28;20240;-65
2022/05/30 13:30:51;;;;;;;4.77;3.33;;;21.10;99.90;;;;;;5052535;28;20198;-65
2022/05/30 13:33:31;;;;;;;4.10;3.80;;;21.40;99.90;;;;;;5052637;28;20167;-65
2022/05/30 13:36:03;;;;;;;3.67;3.30;;;21.80;99.90;;;;;;5052695;28;20175;-65
2022/05/30 13:38:37;;;;;;;5.13;3.63;;;21.80;99.90;;;;;;5052728;28;20171;-65